createdAt,value
2018-11-21T00:00:32.614Z,1.90
2018-11-21T00:03:01.065Z,1.90
2018-11-21T00:05:29.346Z,1.90
2018-11-21T00:07:57.728Z,1.90
2018-11-21T00:10:26.039Z,1.90
2018-11-21T00:12:55.849Z,1.80
2018-11-21T00:15:24.175Z,1.80
2018-11-21T00:17:52.440Z,1.80
2018-11-21T00:20:20.991Z,1.80
2018-11-21T00:22:49.729Z,1.90
2018-11-21T00:25:17.996Z,1.90
2018-11-21T00:27:46.871Z,1.90
2018-11-21T00:30:16.152Z,1.90
2018-11-21T00:32:44.825Z,1.90
2018-11-21T00:35:13.098Z,1.80
2018-11-21T00:37:41.481Z,1.80
2018-11-21T00:40:13.626Z,1.80
2018-11-21T00:42:46.744Z,1.80
2018-11-21T00:45:10.999Z,1.80
2018-11-21T00:47:39.374Z,1.80
2018-11-21T00:50:07.710Z,1.80
2018-11-21T00:52:36.534Z,1.80
2018-11-21T00:55:04.962Z,1.80
2018-11-21T00:57:33.301Z,1.70
2018-11-21T01:00:01.582Z,1.70
2018-11-21T01:02:29.860Z,1.60
2018-11-21T01:04:58.343Z,1.50
2018-11-21T01:07:26.899Z,1.50
2018-11-21T01:09:55.164Z,1.40
2018-11-21T01:12:23.453Z,1.30
2018-11-21T01:14:51.801Z,1.40
2018-11-21T01:17:20.094Z,1.30
2018-11-21T01:19:48.394Z,1.30
2018-11-21T01:22:16.741Z,1.20
2018-11-21T01:24:59.488Z,1.20
2018-11-21T01:27:53.387Z,1.20
2018-11-21T01:30:50.131Z,1.10
2018-11-21T01:33:18.251Z,1.10
2018-11-21T01:35:46.525Z,1.10
2018-11-21T01:38:14.803Z,1.10
2018-11-21T01:40:43.048Z,1.00
2018-11-21T01:43:12.263Z,1.00
2018-11-21T01:45:40.577Z,1.00
2018-11-21T01:48:08.859Z,1.00
2018-11-21T01:50:37.448Z,0.90
2018-11-21T01:53:05.740Z,0.90
2018-11-21T01:55:34.296Z,1.00
2018-11-21T01:58:02.596Z,1.00
2018-11-21T02:00:31.153Z,0.90
2018-11-21T02:02:59.750Z,1.00
2018-11-21T02:05:28.001Z,0.90
2018-11-21T02:07:56.281Z,0.90
2018-11-21T02:10:24.888Z,0.90
2018-11-21T02:12:53.495Z,0.80
2018-11-21T02:15:22.484Z,0.80
2018-11-21T02:17:50.845Z,0.80
2018-11-21T02:20:19.937Z,0.80
2018-11-21T02:22:48.928Z,0.80
2018-11-21T02:25:17.197Z,0.80
2018-11-21T02:27:45.447Z,0.70
2018-11-21T02:30:14.116Z,0.60
2018-11-21T02:32:42.452Z,0.60
2018-11-21T02:35:10.796Z,0.60
2018-11-21T02:37:39.206Z,0.60
2018-11-21T02:40:07.873Z,0.50
2018-11-21T02:42:36.380Z,0.50
2018-11-21T02:45:05.412Z,0.40
2018-11-21T02:47:34.602Z,0.40
2018-11-21T02:50:02.889Z,0.40
2018-11-21T02:52:31.315Z,0.40
2018-11-21T02:54:59.921Z,0.30
2018-11-21T02:57:32.463Z,0.40
2018-11-21T03:00:09.318Z,0.40
2018-11-21T03:02:37.627Z,0.40
2018-11-21T03:05:06.302Z,0.30
2018-11-21T03:07:34.926Z,0.30
2018-11-21T03:10:03.614Z,0.30
2018-11-21T03:12:32.745Z,0.30
2018-11-21T03:15:01.034Z,0.30
2018-11-21T03:17:29.304Z,0.30
2018-11-21T03:19:57.666Z,0.30
2018-11-21T03:22:25.929Z,0.30
2018-11-21T03:24:54.269Z,0.30
2018-11-21T03:27:22.893Z,0.20
2018-11-21T03:29:51.179Z,0.20
2018-11-21T03:32:19.466Z,0.20
2018-11-21T03:34:47.889Z,0.10
2018-11-21T03:37:16.227Z,0.20
2018-11-21T03:39:44.546Z,0.20
2018-11-21T03:42:12.831Z,0.20
2018-11-21T03:44:41.124Z,0.10
2018-11-21T03:47:09.457Z,0.10
2018-11-21T03:49:37.807Z,0.00
2018-11-21T03:52:06.113Z,0.00
2018-11-21T03:54:34.485Z,-0.10
2018-11-21T03:57:03.369Z,-0.10
2018-11-21T03:59:31.685Z,-0.10
2018-11-21T04:01:59.998Z,-0.10
2018-11-21T04:04:28.278Z,0.00
2018-11-21T04:06:56.841Z,0.00
2018-11-21T04:09:25.166Z,0.10
2018-11-21T04:11:54.549Z,0.10
2018-11-21T04:14:21.723Z,0.10
2018-11-21T04:16:50.084Z,0.10
2018-11-21T04:19:18.384Z,0.20
2018-11-21T04:21:46.651Z,0.10
2018-11-21T04:24:15.317Z,0.20
2018-11-21T04:26:44.072Z,0.10
2018-11-21T04:29:12.488Z,0.10
2018-11-21T04:31:41.175Z,0.10
2018-11-21T04:34:09.755Z,0.00
2018-11-21T04:36:38.325Z,0.10
2018-11-21T04:39:10.062Z,0.10
2018-11-21T04:41:38.304Z,0.20
2018-11-21T04:44:06.725Z,0.20
2018-11-21T04:46:35.814Z,0.30
2018-11-21T04:49:04.101Z,0.40
2018-11-21T04:51:32.392Z,0.40
2018-11-21T04:54:00.681Z,0.50
2018-11-21T04:56:28.933Z,0.60
2018-11-21T04:58:57.205Z,0.60
2018-11-21T05:01:25.477Z,0.60
2018-11-21T05:03:53.814Z,0.60
2018-11-21T05:06:23.000Z,0.60
2018-11-21T05:08:51.300Z,0.50
2018-11-21T05:11:19.580Z,0.50
2018-11-21T05:13:47.914Z,0.40
2018-11-21T05:16:16.164Z,0.40
2018-11-21T05:18:45.103Z,0.30
2018-11-21T05:21:13.359Z,0.30
2018-11-21T05:23:41.655Z,0.30
2018-11-21T05:26:09.914Z,0.20
2018-11-21T05:28:38.240Z,0.20
2018-11-21T05:31:06.489Z,0.10
2018-11-21T05:33:35.070Z,0.10
2018-11-21T05:36:03.344Z,0.20
2018-11-21T05:38:31.611Z,0.10
2018-11-21T05:40:59.877Z,0.10
2018-11-21T05:43:28.173Z,0.10
2018-11-21T05:45:56.454Z,0.10
2018-11-21T05:48:41.102Z,0.10
2018-11-21T05:51:09.473Z,0.20
2018-11-21T05:53:37.903Z,0.20
2018-11-21T05:56:06.171Z,0.30
2018-11-21T05:58:34.640Z,0.30
2018-11-21T06:01:03.959Z,0.30
2018-11-21T06:03:32.298Z,0.30
2018-11-21T06:06:00.567Z,0.30
2018-11-21T06:08:29.258Z,0.30
2018-11-21T06:10:57.562Z,0.40
2018-11-21T06:13:26.040Z,0.40
2018-11-21T06:15:54.621Z,0.40
2018-11-21T06:18:22.949Z,0.50
2018-11-21T06:20:51.321Z,0.50
2018-11-21T06:23:20.523Z,0.60
2018-11-21T06:25:48.951Z,0.60
2018-11-21T06:28:17.370Z,0.60
2018-11-21T06:30:46.261Z,0.70
2018-11-21T06:33:14.632Z,0.70
2018-11-21T06:35:42.910Z,0.80
2018-11-21T06:38:11.487Z,0.80
2018-11-21T06:40:39.753Z,0.80
2018-11-21T06:43:08.024Z,0.90
2018-11-21T06:45:36.291Z,0.90
2018-11-21T06:48:05.242Z,0.90
2018-11-21T06:50:33.530Z,0.90
2018-11-21T06:53:01.800Z,0.90
2018-11-21T06:55:30.065Z,0.90
2018-11-21T06:57:59.135Z,0.90
2018-11-21T07:00:27.744Z,0.90
2018-11-21T07:02:56.426Z,1.00
2018-11-21T07:05:24.715Z,1.00
2018-11-21T07:07:52.961Z,1.00
2018-11-21T07:10:21.239Z,1.00
2018-11-21T07:12:49.813Z,1.00
2018-11-21T07:15:18.120Z,1.00
2018-11-21T07:17:46.401Z,1.10
2018-11-21T07:20:14.743Z,1.10
2018-11-21T07:22:43.187Z,1.20
2018-11-21T07:25:17.165Z,1.20
2018-11-21T07:27:45.640Z,1.20
2018-11-21T07:30:14.982Z,1.30
2018-11-21T07:32:43.318Z,1.30
2018-11-21T07:35:17.548Z,1.30
2018-11-21T07:37:40.868Z,1.30
2018-11-21T07:40:10.659Z,1.30
2018-11-21T07:42:38.967Z,1.30
2018-11-21T07:45:09.281Z,1.30
2018-11-21T07:47:37.897Z,1.30
2018-11-21T07:50:08.995Z,1.30
2018-11-21T07:52:37.343Z,1.30
2018-11-21T07:55:06.164Z,1.30
2018-11-21T07:57:39.707Z,1.30
2018-11-21T08:00:59.649Z,1.30
2018-11-21T08:03:29.704Z,1.40
2018-11-21T08:06:29.087Z,1.40
2018-11-21T08:09:12.607Z,1.30
2018-11-21T08:12:08.922Z,1.40
2018-11-21T08:14:56.377Z,1.40
2018-11-21T08:17:55.747Z,1.50
2018-11-21T08:20:39.170Z,1.50
2018-11-21T08:23:25.515Z,1.60
2018-11-21T08:26:15.950Z,1.60
2018-11-21T08:28:44.283Z,1.70
2018-11-21T08:31:12.549Z,1.70
2018-11-21T08:33:41.207Z,1.70
2018-11-21T08:36:09.484Z,1.70
2018-11-21T08:38:37.969Z,1.70
2018-11-21T08:41:06.262Z,1.70
2018-11-21T08:43:34.548Z,1.80
2018-11-21T08:46:02.829Z,1.80
2018-11-21T08:48:31.123Z,1.80
2018-11-21T08:50:59.412Z,1.90
2018-11-21T08:53:27.696Z,1.90
2018-11-21T08:55:56.012Z,2.00
2018-11-21T08:58:24.305Z,2.00
2018-11-21T09:00:52.567Z,2.00
2018-11-21T09:03:20.890Z,2.00
2018-11-21T09:05:49.560Z,2.10
2018-11-21T09:08:17.826Z,2.10
2018-11-21T09:10:46.155Z,2.20
2018-11-21T09:13:14.427Z,2.20
2018-11-21T09:15:42.724Z,2.30
2018-11-21T09:18:11.004Z,2.30
2018-11-21T09:20:39.305Z,2.40
2018-11-21T09:23:07.637Z,2.40
2018-11-21T09:25:35.930Z,2.50
2018-11-21T09:28:04.520Z,2.60
2018-11-21T09:30:32.816Z,2.60
2018-11-21T09:33:01.460Z,2.60
2018-11-21T09:35:30.010Z,2.70
2018-11-21T09:37:58.553Z,2.70
2018-11-21T09:40:26.826Z,2.80
2018-11-21T09:42:56.146Z,2.80
2018-11-21T09:45:25.013Z,2.70
2018-11-21T09:47:53.603Z,2.70
2018-11-21T09:50:26.532Z,2.70
2018-11-21T09:52:55.080Z,2.70
2018-11-21T09:55:23.354Z,2.70
2018-11-21T09:57:51.613Z,2.70
2018-11-21T10:00:56.573Z,2.70
2018-11-21T10:03:27.265Z,2.70
2018-11-21T10:06:01.188Z,2.80
2018-11-21T10:08:39.498Z,2.80
2018-11-21T10:11:08.608Z,2.90
2018-11-21T10:13:37.211Z,3.00
2018-11-21T10:16:06.518Z,3.10
2018-11-21T10:18:36.284Z,3.20
2018-11-21T10:21:06.040Z,3.30
2018-11-21T10:23:34.374Z,3.30
2018-11-21T10:26:02.644Z,3.30
2018-11-21T10:28:30.942Z,3.30
2018-11-21T10:30:59.222Z,3.40
2018-11-21T10:33:27.858Z,3.40
2018-11-21T10:35:56.868Z,3.50
2018-11-21T10:38:25.161Z,3.30
2018-11-21T10:40:53.432Z,3.40
2018-11-21T10:43:21.772Z,3.40
2018-11-21T10:45:50.053Z,3.30
2018-11-21T10:48:18.947Z,3.30
2018-11-21T10:50:47.267Z,3.30
2018-11-21T10:53:16.808Z,3.30
2018-11-21T10:55:45.947Z,3.40
2018-11-21T10:58:14.557Z,3.40
2018-11-21T11:01:00.358Z,3.40
2018-11-21T11:03:30.804Z,3.40
2018-11-21T11:06:16.161Z,3.40
2018-11-21T11:09:02.129Z,3.40
2018-11-21T11:11:58.599Z,3.50
2018-11-21T11:14:52.088Z,3.40
2018-11-21T11:17:48.310Z,3.50
2018-11-21T11:20:38.342Z,3.60
2018-11-21T11:23:20.490Z,3.50
2018-11-21T11:26:14.133Z,3.50
2018-11-21T11:28:58.425Z,3.50
2018-11-21T11:31:44.617Z,3.60
2018-11-21T11:34:35.408Z,3.70
2018-11-21T11:37:29.217Z,3.70
2018-11-21T11:40:15.392Z,3.70
2018-11-21T11:43:02.422Z,3.70
2018-11-21T11:45:48.547Z,3.80
2018-11-21T11:48:34.673Z,3.70
2018-11-21T11:51:34.288Z,3.70
2018-11-21T11:54:37.138Z,3.70
2018-11-21T11:57:30.289Z,3.80
2018-11-21T12:00:23.865Z,3.80
2018-11-21T12:03:09.989Z,3.80
2018-11-21T12:05:56.525Z,3.80
2018-11-21T12:08:43.997Z,3.80
2018-11-21T12:11:46.670Z,3.80
2018-11-21T12:14:39.852Z,3.90
2018-11-21T12:17:38.704Z,3.80
2018-11-21T12:20:26.183Z,3.80
2018-11-21T12:23:12.239Z,3.90
